createdAt,value
2017-08-10T00:01:26.295Z,89.10
2017-08-10T00:03:54.235Z,89.60
2017-08-10T00:06:26.429Z,88.60
2017-08-10T00:08:53.944Z,88.60
2017-08-10T00:11:21.457Z,88.90
2017-08-10T00:13:48.959Z,89.30
2017-08-10T00:16:16.488Z,89.70
2017-08-10T00:18:43.982Z,90.00
2017-08-10T00:21:11.489Z,90.40
2017-08-10T00:23:39.019Z,90.30
2017-08-10T00:26:06.615Z,90.60
2017-08-10T00:28:34.113Z,90.80
2017-08-10T00:31:01.675Z,90.90
2017-08-10T00:33:29.237Z,90.80
2017-08-10T00:35:57.471Z,90.90
2017-08-10T00:38:25.019Z,91.00
2017-08-10T00:40:52.523Z,90.90
2017-08-10T00:43:20.022Z,91.10
2017-08-10T00:45:47.570Z,91.30
2017-08-10T00:48:15.143Z,91.30
2017-08-10T00:50:42.648Z,91.50
2017-08-10T00:53:10.184Z,91.50
2017-08-10T00:55:37.688Z,91.30
2017-08-10T00:58:05.188Z,91.30
2017-08-10T01:00:32.695Z,91.40
2017-08-10T01:03:00.256Z,91.20
2017-08-10T01:05:28.374Z,91.20
2017-08-10T01:07:55.903Z,91.30
2017-08-10T01:10:23.395Z,91.40
2017-08-10T01:12:50.954Z,91.50
2017-08-10T01:15:18.458Z,91.60
2017-08-10T01:17:46.008Z,91.40
2017-08-10T01:20:13.540Z,91.50
2017-08-10T01:22:41.060Z,91.60
2017-08-10T01:25:08.548Z,91.70
2017-08-10T01:27:36.787Z,91.70
2017-08-10T01:30:04.288Z,91.80
2017-08-10T01:32:31.798Z,91.80
2017-08-10T01:34:59.332Z,91.60
2017-08-10T01:37:26.835Z,91.70
2017-08-10T01:39:54.376Z,91.70
2017-08-10T01:42:21.887Z,91.60
2017-08-10T01:44:50.128Z,91.30
2017-08-10T01:47:17.642Z,91.30
2017-08-10T01:49:45.195Z,91.30
2017-08-10T01:52:12.731Z,91.30
2017-08-10T01:54:40.232Z,91.30
2017-08-10T01:57:07.739Z,91.30
2017-08-10T01:59:36.080Z,91.30
2017-08-10T02:02:03.577Z,91.30
2017-08-10T02:04:31.085Z,91.40
2017-08-10T02:06:58.608Z,91.00
2017-08-10T02:09:26.153Z,91.00
2017-08-10T02:11:54.355Z,90.90
2017-08-10T02:14:21.867Z,90.80
2017-08-10T02:16:49.385Z,90.90
2017-08-10T02:19:16.887Z,91.30
2017-08-10T02:21:52.086Z,91.10
2017-08-10T02:24:19.593Z,91.00
2017-08-10T02:26:47.143Z,91.00
2017-08-10T02:29:14.655Z,91.10
2017-08-10T02:31:42.343Z,91.30
2017-08-10T02:34:09.901Z,91.50
2017-08-10T02:36:37.413Z,91.70
2017-08-10T02:39:05.675Z,91.60
2017-08-10T02:41:33.209Z,91.90
2017-08-10T02:44:02.196Z,92.00
2017-08-10T02:46:29.728Z,92.10
2017-08-10T02:48:57.264Z,92.00
2017-08-10T02:51:25.551Z,92.20
2017-08-10T02:53:53.060Z,92.20
2017-08-10T02:56:20.576Z,92.60
2017-08-10T02:58:48.908Z,92.80
2017-08-10T03:01:16.414Z,92.80
2017-08-10T03:03:43.921Z,92.90
2017-08-10T03:06:11.431Z,93.00
2017-08-10T03:08:38.937Z,93.10
2017-08-10T03:11:06.453Z,93.30
2017-08-10T03:13:33.976Z,93.70
2017-08-10T03:16:01.898Z,93.60
2017-08-10T03:18:29.437Z,93.60
2017-08-10T03:20:56.956Z,93.30
2017-08-10T03:23:24.455Z,93.40
2017-08-10T03:25:52.723Z,93.30
2017-08-10T03:28:20.234Z,93.20
2017-08-10T03:30:47.744Z,93.30
2017-08-10T03:33:15.266Z,93.10
2017-08-10T03:35:42.763Z,93.00
2017-08-10T03:38:10.267Z,93.00
2017-08-10T03:40:37.767Z,92.90
2017-08-10T03:43:05.283Z,92.90
2017-08-10T03:45:32.845Z,93.00
2017-08-10T03:48:00.372Z,93.20
2017-08-10T03:50:30.735Z,93.00
2017-08-10T03:52:58.498Z,93.00
2017-08-10T03:55:25.999Z,93.10
2017-08-10T03:57:53.509Z,92.70
2017-08-10T04:00:21.497Z,92.70
2017-08-10T04:02:49.037Z,92.50
2017-08-10T04:05:16.557Z,92.60
2017-08-10T04:07:44.072Z,92.80
2017-08-10T04:10:11.612Z,93.10
2017-08-10T04:12:39.160Z,93.30
2017-08-10T04:15:06.683Z,93.30
2017-08-10T04:17:34.292Z,93.20
2017-08-10T04:20:01.825Z,93.30
2017-08-10T04:22:37.562Z,93.10
2017-08-10T04:25:05.088Z,93.00
2017-08-10T04:27:32.617Z,92.70
2017-08-10T04:30:00.179Z,92.60
2017-08-10T04:32:27.674Z,92.60
2017-08-10T04:35:00.378Z,92.40
2017-08-10T04:37:27.881Z,92.20
2017-08-10T04:39:55.408Z,92.10
2017-08-10T04:42:22.912Z,91.70
2017-08-10T04:44:50.468Z,91.60
2017-08-10T04:47:18.032Z,91.60
2017-08-10T04:49:45.539Z,91.40
2017-08-10T04:52:13.042Z,91.20
2017-08-10T04:54:40.556Z,91.10
2017-08-10T04:57:08.107Z,90.80
2017-08-10T04:59:35.606Z,90.80
2017-08-10T05:02:03.123Z,90.50
2017-08-10T05:04:30.616Z,90.50
2017-08-10T05:07:05.975Z,90.30
2017-08-10T05:09:33.484Z,90.30
2017-08-10T05:12:01.408Z,90.00
2017-08-10T05:14:28.919Z,90.00
2017-08-10T05:16:56.420Z,89.90
2017-08-10T05:19:24.720Z,88.70
2017-08-10T05:21:52.277Z,88.60
2017-08-10T05:24:20.192Z,88.20
2017-08-10T05:26:47.747Z,88.10
2017-08-10T05:29:15.257Z,87.80
2017-08-10T05:31:42.790Z,87.80
2017-08-10T05:34:11.127Z,87.30
2017-08-10T05:36:43.067Z,87.10
2017-08-10T05:39:10.615Z,86.90
2017-08-10T05:41:38.156Z,87.70
2017-08-10T05:44:05.676Z,85.80
2017-08-10T05:46:33.194Z,84.80
2017-08-10T05:49:00.981Z,83.30
2017-08-10T05:51:28.495Z,82.80
2017-08-10T05:53:56.798Z,81.30
2017-08-10T05:56:24.317Z,81.20
2017-08-10T05:58:51.826Z,80.50
2017-08-10T06:01:19.403Z,80.40
2017-08-10T06:03:46.940Z,81.00
2017-08-10T06:06:15.331Z,81.90
2017-08-10T06:08:46.779Z,82.90
2017-08-10T06:11:14.588Z,82.70
2017-08-10T06:13:42.152Z,82.90
2017-08-10T06:16:09.684Z,83.00
2017-08-10T06:18:37.181Z,82.80
2017-08-10T06:21:04.740Z,82.80
2017-08-10T06:23:32.289Z,82.90
2017-08-10T06:25:59.800Z,82.80
2017-08-10T06:28:27.356Z,82.80
2017-08-10T06:30:54.866Z,83.40
2017-08-10T06:33:22.446Z,83.20
2017-08-10T06:35:50.149Z,83.20
2017-08-10T06:38:17.659Z,83.10
2017-08-10T06:40:49.008Z,83.10
2017-08-10T06:43:16.524Z,82.20
2017-08-10T06:45:44.043Z,82.30
2017-08-10T06:48:11.583Z,82.10
2017-08-10T06:50:39.119Z,82.20
2017-08-10T06:53:07.118Z,82.00
2017-08-10T06:55:34.628Z,82.00
2017-08-10T06:58:02.140Z,82.00
2017-08-10T07:00:29.696Z,81.50
2017-08-10T07:02:57.314Z,80.90
2017-08-10T07:05:24.816Z,80.60
2017-08-10T07:07:52.307Z,80.90
2017-08-10T07:10:23.908Z,80.70
2017-08-10T07:12:51.416Z,81.00
2017-08-10T07:15:18.915Z,82.00
2017-08-10T07:17:46.477Z,81.90
2017-08-10T07:20:14.007Z,81.80
2017-08-10T07:22:41.539Z,81.60
2017-08-10T07:25:09.115Z,81.40
2017-08-10T07:27:37.395Z,81.20
2017-08-10T07:30:04.904Z,81.20
2017-08-10T07:32:32.479Z,80.30
2017-08-10T07:34:59.992Z,80.40
2017-08-10T07:37:27.521Z,79.80
2017-08-10T07:39:55.072Z,80.10
2017-08-10T07:42:22.582Z,79.60
2017-08-10T07:44:50.927Z,79.30
2017-08-10T07:47:19.231Z,78.50
2017-08-10T07:49:46.753Z,78.50
2017-08-10T07:52:14.248Z,78.20
2017-08-10T07:54:45.930Z,77.90
2017-08-10T07:57:13.460Z,78.10
2017-08-10T07:59:41.020Z,78.20
2017-08-10T08:02:08.515Z,78.50
2017-08-10T08:04:36.016Z,77.90
2017-08-10T08:07:04.241Z,78.50
2017-08-10T08:09:31.746Z,78.30
2017-08-10T08:12:00.116Z,78.70
2017-08-10T08:14:27.631Z,78.90
2017-08-10T08:16:55.156Z,78.70
2017-08-10T08:19:22.667Z,77.90
2017-08-10T08:21:50.155Z,77.20
2017-08-10T08:24:20.946Z,76.70
2017-08-10T08:26:48.447Z,76.70
2017-08-10T08:29:16.868Z,76.50
2017-08-10T08:31:44.388Z,76.10
2017-08-10T08:34:12.603Z,76.00
2017-08-10T08:36:40.098Z,76.10
2017-08-10T08:39:11.168Z,75.50
2017-08-10T08:41:38.692Z,75.60
2017-08-10T08:44:06.208Z,74.40
2017-08-10T08:46:34.496Z,73.80
2017-08-10T08:49:02.051Z,73.90
2017-08-10T08:51:30.328Z,73.10
2017-08-10T08:53:57.824Z,73.10
2017-08-10T08:56:28.651Z,73.50
2017-08-10T08:58:56.523Z,74.20
2017-08-10T09:01:24.023Z,75.60
2017-08-10T09:03:51.583Z,75.90
2017-08-10T09:06:19.090Z,76.60
2017-08-10T09:08:46.614Z,77.10
2017-08-10T09:11:14.183Z,78.40
2017-08-10T09:13:41.679Z,79.30
2017-08-10T09:16:09.200Z,79.90
2017-08-10T09:18:36.782Z,79.70
2017-08-10T09:21:04.329Z,80.10
2017-08-10T09:23:31.841Z,80.20
2017-08-10T09:26:06.228Z,80.40
2017-08-10T09:28:34.168Z,81.10
2017-08-10T09:31:02.613Z,81.00
2017-08-10T09:33:30.115Z,81.30
2017-08-10T09:35:58.996Z,79.80
2017-08-10T09:38:26.522Z,79.80
2017-08-10T09:40:56.108Z,80.10
2017-08-10T09:43:23.619Z,80.00
2017-08-10T09:45:51.179Z,80.30
2017-08-10T09:48:18.715Z,80.80
2017-08-10T09:50:46.251Z,80.70
2017-08-10T09:53:14.527Z,79.40
2017-08-10T09:55:42.029Z,79.80
2017-08-10T09:58:09.540Z,79.50
2017-08-10T10:00:37.103Z,78.90
2017-08-10T10:03:04.640Z,79.40
2017-08-10T10:05:32.139Z,78.60
2017-08-10T10:07:59.810Z,78.60
2017-08-10T10:10:27.332Z,79.20
2017-08-10T10:12:54.847Z,79.40
2017-08-10T10:15:22.400Z,79.80
2017-08-10T10:17:49.921Z,80.40
2017-08-10T10:20:17.927Z,80.40
2017-08-10T10:22:45.492Z,80.40
2017-08-10T10:25:13.111Z,80.80
2017-08-10T10:27:42.267Z,80.90
2017-08-10T10:30:13.574Z,81.20
2017-08-10T10:32:41.108Z,81.10
2017-08-10T10:35:09.044Z,81.50
2017-08-10T10:37:36.590Z,81.70
2017-08-10T10:40:04.092Z,81.10
2017-08-10T10:42:35.769Z,81.10
2017-08-10T10:45:03.308Z,80.70
2017-08-10T10:47:30.811Z,81.40
2017-08-10T10:49:58.327Z,80.30
2017-08-10T10:52:26.588Z,80.30
2017-08-10T10:54:54.909Z,79.50
2017-08-10T10:57:26.683Z,79.40
2017-08-10T10:59:54.415Z,79.20
2017-08-10T11:02:21.955Z,79.60
2017-08-10T11:04:50.268Z,78.50
2017-08-10T11:07:17.791Z,78.40
2017-08-10T11:09:46.078Z,78.30
2017-08-10T11:12:13.586Z,79.00
2017-08-10T11:14:41.100Z,78.20
2017-08-10T11:17:08.603Z,78.00
2017-08-10T11:19:36.114Z,78.00
2017-08-10T11:22:03.655Z,78.60
2017-08-10T11:24:31.173Z,78.90
2017-08-10T11:27:01.478Z,78.20
2017-08-10T11:29:29.024Z,78.10
2017-08-10T11:31:56.555Z,78.20
2017-08-10T11:34:24.091Z,79.10
2017-08-10T11:36:51.601Z,78.40
2017-08-10T11:39:19.177Z,78.10
2017-08-10T11:41:46.695Z,79.10
2017-08-10T11:44:14.213Z,78.90
2017-08-10T11:46:41.751Z,79.40
2017-08-10T11:49:09.267Z,78.90
2017-08-10T11:51:36.805Z,79.20
2017-08-10T11:54:04.329Z,79.50
2017-08-10T11:56:31.832Z,79.10
2017-08-10T11:59:01.137Z,79.60
2017-08-10T12:01:28.663Z,78.70
2017-08-10T12:03:56.227Z,77.00
2017-08-10T12:06:24.354Z,76.50
2017-08-10T12:08:51.878Z,76.10
2017-08-10T12:11:19.403Z,75.90
2017-08-10T12:13:50.883Z,75.90
2017-08-10T12:16:19.450Z,75.70
2017-08-10T12:18:47.015Z,76.20
2017-08-10T12:21:14.523Z,75.60
2017-08-10T12:23:42.037Z,76.90
2017-08-10T12:26:09.573Z,76.70
2017-08-10T12:28:43.529Z,77.60
2017-08-10T12:31:11.038Z,76.80
2017-08-10T12:33:38.539Z,75.60
2017-08-10T12:36:06.043Z,75.90
2017-08-10T12:38:33.556Z,76.50
2017-08-10T12:41:01.180Z,76.60
2017-08-10T12:43:32.881Z,77.30
2017-08-10T12:46:01.607Z,76.70
2017-08-10T12:48:29.947Z,77.40
2017-08-10T12:50:57.456Z,76.60
2017-08-10T12:53:25.735Z,76.60
2017-08-10T12:55:53.251Z,76.60
2017-08-10T12:58:20.755Z,77.10
2017-08-10T13:00:49.139Z,77.10
2017-08-10T13:03:16.651Z,77.10
2017-08-10T13:05:44.155Z,78.10
2017-08-10T13:08:11.681Z,78.10
2017-08-10T13:10:39.187Z,78.10
2017-08-10T13:13:06.708Z,78.10
2017-08-10T13:15:34.221Z,78.80
2017-08-10T13:18:01.740Z,78.40
2017-08-10T13:20:29.264Z,79.00
2017-08-10T13:22:56.799Z,79.10
2017-08-10T13:25:24.387Z,79.60
2017-08-10T13:27:51.899Z,79.10
2017-08-10T13:30:19.426Z,78.80
2017-08-10T13:32:46.944Z,78.10
2017-08-10T13:35:14.475Z,77.40
2017-08-10T13:37:41.974Z,77.40
2017-08-10T13:40:09.491Z,76.40
2017-08-10T13:42:37.007Z,76.60
2017-08-10T13:45:07.608Z,77.10
2017-08-10T13:47:35.159Z,78.00
2017-08-10T13:50:02.712Z,77.50
2017-08-10T13:52:30.257Z,77.80
2017-08-10T13:54:57.771Z,78.10
2017-08-10T13:57:25.329Z,78.60
2017-08-10T13:59:52.852Z,79.00
2017-08-10T14:02:20.398Z,79.20
2017-08-10T14:04:47.940Z,79.50
2017-08-10T14:07:15.488Z,79.70
2017-08-10T14:09:43.016Z,80.40
2017-08-10T14:12:10.573Z,80.60
2017-08-10T14:14:41.102Z,79.80
2017-08-10T14:17:08.608Z,80.00
2017-08-10T14:19:36.309Z,80.40
2017-08-10T14:22:04.374Z,81.00
2017-08-10T14:24:31.875Z,81.30
2017-08-10T14:26:59.912Z,81.00
2017-08-10T14:29:27.431Z,81.20
2017-08-10T14:31:54.950Z,81.60
2017-08-10T14:34:22.495Z,82.10
2017-08-10T14:36:50.034Z,82.20
2017-08-10T14:39:17.644Z,82.30
2017-08-10T14:41:45.160Z,82.10
2017-08-10T14:44:12.659Z,81.90
2017-08-10T14:46:43.917Z,82.40
2017-08-10T14:49:11.500Z,82.90
2017-08-10T14:51:39.100Z,83.10
2017-08-10T14:54:06.649Z,84.10
2017-08-10T14:56:34.156Z,84.00
2017-08-10T14:59:02.526Z,84.00
2017-08-10T15:01:30.051Z,84.20
2017-08-10T15:03:57.604Z,84.20
2017-08-10T15:06:25.112Z,85.20
2017-08-10T15:08:52.657Z,85.60
2017-08-10T15:11:20.215Z,85.90
2017-08-10T15:13:47.777Z,86.20
2017-08-10T15:16:15.323Z,86.60
2017-08-10T15:18:42.832Z,87.00
2017-08-10T15:21:10.420Z,87.50
2017-08-10T15:23:37.966Z,87.60
2017-08-10T15:26:05.476Z,88.40
2017-08-10T15:28:33.463Z,89.30
2017-08-10T15:31:04.636Z,90.00
2017-08-10T15:33:32.139Z,90.40
2017-08-10T15:36:00.096Z,90.70
2017-08-10T15:38:27.605Z,90.90
2017-08-10T15:40:55.595Z,90.90
2017-08-10T15:43:23.126Z,90.90
2017-08-10T15:45:50.643Z,91.20
2017-08-10T15:48:18.924Z,92.50
2017-08-10T15:50:46.452Z,92.50
2017-08-10T15:53:13.957Z,93.10
2017-08-10T15:55:41.480Z,93.80
2017-08-10T15:58:08.989Z,94.10
2017-08-10T16:00:36.512Z,94.60
2017-08-10T16:03:04.188Z,94.40
2017-08-10T16:05:31.716Z,94.90
2017-08-10T16:07:59.270Z,94.50
2017-08-10T16:10:26.801Z,94.50
2017-08-10T16:12:54.324Z,94.40
2017-08-10T16:15:21.852Z,94.20
2017-08-10T16:17:49.378Z,94.20
2017-08-10T16:20:16.928Z,94.10
2017-08-10T16:22:44.495Z,94.60
2017-08-10T16:25:12.004Z,94.60
2017-08-10T16:27:39.519Z,94.60
2017-08-10T16:30:07.034Z,95.00
2017-08-10T16:32:38.619Z,94.70
2017-08-10T16:35:06.187Z,94.60
2017-08-10T16:37:33.723Z,94.90
2017-08-10T16:40:01.361Z,94.00
2017-08-10T16:42:28.936Z,93.70
2017-08-10T16:44:56.478Z,94.40
2017-08-10T16:47:28.397Z,93.80
2017-08-10T16:49:55.911Z,93.80
2017-08-10T16:52:23.428Z,94.50
2017-08-10T16:54:50.947Z,94.30
2017-08-10T16:57:18.492Z,94.40
2017-08-10T16:59:46.011Z,94.60
2017-08-10T17:02:13.533Z,94.50
2017-08-10T17:04:41.107Z,94.70
2017-08-10T17:07:08.772Z,94.20
2017-08-10T17:09:36.384Z,95.10
2017-08-10T17:12:03.903Z,94.70
2017-08-10T17:14:31.444Z,94.50
2017-08-10T17:16:58.958Z,93.80
2017-08-10T17:19:26.465Z,93.80
2017-08-10T17:21:53.969Z,94.10
2017-08-10T17:24:21.541Z,93.80
2017-08-10T17:26:49.536Z,93.50
2017-08-10T17:29:17.043Z,93.30
2017-08-10T17:31:44.563Z,93.20
2017-08-10T17:34:12.117Z,93.10
2017-08-10T17:36:40.286Z,93.30
2017-08-10T17:39:07.788Z,93.40
2017-08-10T17:41:35.324Z,93.30
2017-08-10T17:44:02.831Z,93.30
2017-08-10T17:46:30.365Z,93.30
2017-08-10T17:48:57.932Z,93.00
2017-08-10T17:51:25.523Z,92.90
2017-08-10T17:53:53.071Z,93.10
2017-08-10T17:56:20.608Z,93.30
2017-08-10T17:58:48.127Z,93.20
2017-08-10T18:01:16.440Z,93.20
2017-08-10T18:03:43.945Z,93.10
2017-08-10T18:06:11.519Z,93.10
2017-08-10T18:08:39.068Z,93.20
2017-08-10T18:11:07.100Z,93.30
2017-08-10T18:13:34.617Z,93.30
2017-08-10T18:16:02.173Z,93.40
2017-08-10T18:18:33.052Z,93.40
2017-08-10T18:21:00.730Z,93.40
2017-08-10T18:23:28.412Z,93.30
2017-08-10T18:25:55.903Z,93.30
2017-08-10T18:28:23.411Z,93.60
2017-08-10T18:30:50.919Z,93.60
2017-08-10T18:33:18.431Z,93.70
2017-08-10T18:35:46.036Z,93.70
2017-08-10T18:38:14.391Z,93.40
2017-08-10T18:40:41.998Z,93.30
2017-08-10T18:43:09.513Z,93.40
2017-08-10T18:45:37.151Z,93.20
2017-08-10T18:48:04.655Z,93.60
2017-08-10T18:50:32.954Z,93.30
2017-08-10T18:53:04.456Z,93.30
2017-08-10T18:55:32.007Z,93.40
2017-08-10T18:57:59.701Z,93.30
2017-08-10T19:00:27.983Z,93.50
2017-08-10T19:02:55.544Z,93.50
2017-08-10T19:05:23.875Z,93.30
2017-08-10T19:07:51.437Z,93.30
2017-08-10T19:12:52.904Z,93.40
2017-08-10T19:15:20.439Z,93.50
2017-08-10T19:17:47.983Z,93.30
2017-08-10T19:20:15.492Z,93.60
2017-08-10T19:22:43.144Z,93.20
2017-08-10T19:25:10.705Z,93.20
2017-08-10T19:27:38.235Z,93.20
2017-08-10T19:30:05.763Z,93.00
2017-08-10T19:32:33.293Z,92.90
2017-08-10T19:35:00.851Z,93.10
2017-08-10T19:37:28.367Z,93.30
2017-08-10T19:39:55.937Z,93.20
2017-08-10T19:42:23.486Z,93.50
2017-08-10T19:44:53.522Z,93.50
2017-08-10T19:47:21.050Z,93.70
2017-08-10T19:49:48.575Z,93.80
2017-08-10T19:52:19.089Z,93.90
2017-08-10T19:54:48.368Z,93.70
2017-08-10T19:57:15.907Z,93.80
2017-08-10T19:59:45.291Z,93.80
2017-08-10T20:02:12.810Z,93.70
2017-08-10T20:04:40.351Z,93.80
2017-08-10T20:07:07.877Z,93.90
2017-08-10T20:09:35.387Z,93.80
2017-08-10T20:12:05.542Z,93.80
2017-08-10T20:14:33.089Z,93.90
2017-08-10T20:17:00.835Z,93.80
2017-08-10T20:19:28.336Z,93.70
2017-08-10T20:21:58.725Z,93.90
2017-08-10T20:24:26.270Z,94.10
2017-08-10T20:26:55.295Z,93.90
2017-08-10T20:29:23.587Z,93.80
2017-08-10T20:31:51.154Z,94.10
2017-08-10T20:34:18.747Z,94.20
2017-08-10T20:36:46.394Z,94.00
2017-08-10T20:39:17.388Z,94.10
2017-08-10T20:41:44.953Z,94.10
2017-08-10T20:44:12.520Z,94.10
2017-08-10T20:46:40.078Z,94.10
2017-08-10T20:49:08.083Z,94.40
2017-08-10T20:51:40.193Z,94.10
2017-08-10T20:54:07.709Z,94.30
2017-08-10T20:56:35.712Z,94.10
2017-08-10T20:59:03.239Z,94.40
2017-08-10T21:01:31.510Z,94.10
2017-08-10T21:03:59.031Z,93.80
2017-08-10T21:06:29.943Z,93.90
2017-08-10T21:08:57.676Z,93.90
2017-08-10T21:11:25.231Z,93.90
2017-08-10T21:13:52.756Z,93.90
2017-08-10T21:16:20.276Z,93.90
2017-08-10T21:18:50.093Z,93.80
2017-08-10T21:21:17.627Z,93.80
2017-08-10T21:23:48.513Z,93.80
2017-08-10T21:26:16.036Z,93.70
2017-08-10T21:28:44.347Z,93.80
2017-08-10T21:31:11.871Z,93.80
2017-08-10T21:33:40.157Z,93.90
2017-08-10T21:36:07.677Z,94.00
2017-08-10T21:38:39.232Z,94.00
2017-08-10T21:41:06.787Z,94.00
2017-08-10T21:43:34.307Z,94.10
2017-08-10T21:46:02.484Z,94.30
2017-08-10T21:48:30.112Z,94.10
2017-08-10T21:50:57.943Z,94.00
2017-08-10T21:53:29.743Z,94.20
2017-08-10T21:55:58.051Z,93.80
2017-08-10T21:58:26.503Z,94.00
2017-08-10T22:00:54.808Z,94.60
2017-08-10T22:03:22.324Z,94.30
2017-08-10T22:05:49.852Z,94.40
2017-08-10T22:08:19.727Z,94.10
2017-08-10T22:10:48.003Z,94.20
2017-08-10T22:13:15.548Z,94.00
2017-08-10T22:15:43.601Z,94.10
2017-08-10T22:18:11.130Z,94.00
2017-08-10T22:20:38.660Z,93.90
2017-08-10T22:23:09.043Z,94.00
2017-08-10T22:25:37.084Z,93.80
2017-08-10T22:28:04.654Z,94.00
2017-08-10T22:30:32.168Z,94.00
2017-08-10T22:33:00.047Z,93.80
2017-08-10T22:35:27.596Z,93.90
2017-08-10T22:37:55.871Z,93.90
2017-08-10T22:40:26.758Z,93.90
2017-08-10T22:42:54.983Z,94.10
2017-08-10T22:45:22.543Z,93.70
2017-08-10T22:47:50.064Z,93.80
2017-08-10T22:50:18.687Z,93.70
2017-08-10T22:52:46.194Z,93.60
2017-08-10T22:55:13.705Z,93.70
2017-08-10T22:57:41.218Z,93.50
2017-08-10T23:00:08.761Z,93.80
2017-08-10T23:02:36.343Z,93.70
2017-08-10T23:05:04.431Z,93.50
2017-08-10T23:07:32.448Z,93.60
2017-08-10T23:09:59.960Z,93.70
2017-08-10T23:12:27.486Z,93.60
2017-08-10T23:14:55.972Z,93.60
2017-08-10T23:17:23.522Z,93.50
2017-08-10T23:19:51.031Z,93.50
2017-08-10T23:22:18.639Z,93.40
2017-08-10T23:24:46.143Z,93.50
2017-08-10T23:27:14.095Z,93.60
2017-08-10T23:29:41.654Z,93.60
2017-08-10T23:32:09.165Z,93.30
2017-08-10T23:34:36.698Z,93.50
2017-08-10T23:37:04.423Z,93.70
2017-08-10T23:39:35.664Z,93.40
2017-08-10T23:42:03.195Z,93.50
2017-08-10T23:44:31.498Z,93.50
2017-08-10T23:46:59.011Z,93.40
2017-08-10T23:49:26.721Z,93.30
2017-08-10T23:51:54.278Z,93.50
2017-08-10T23:54:29.370Z,93.20
2017-08-10T23:56:56.960Z,93.40
2017-08-10T23:59:24.551Z,93.60
